createdAt,value
2023-02-07T00:01:30.525Z,84.92
2023-02-07T00:03:58.810Z,83.95
2023-02-07T00:06:33.625Z,84.25
2023-02-07T00:09:02.445Z,83.94
2023-02-07T00:11:29.538Z,83.58
2023-02-07T00:13:58.819Z,83.44
2023-02-07T00:17:05.254Z,83.13
2023-02-07T00:19:32.224Z,83.43
2023-02-07T00:21:59.680Z,84.05
2023-02-07T00:24:26.415Z,83.60
2023-02-07T00:26:53.183Z,83.97
2023-02-07T00:29:20.001Z,83.71
2023-02-07T00:31:46.975Z,83.16
2023-02-07T00:34:28.951Z,82.54
2023-02-07T00:36:59.230Z,81.31
2023-02-07T00:39:27.247Z,81.80
2023-02-07T00:41:54.651Z,80.67
2023-02-07T00:44:21.565Z,80.65
2023-02-07T00:46:48.394Z,80.65
2023-02-07T00:49:15.379Z,80.38
2023-02-07T00:51:42.095Z,79.94
2023-02-07T00:54:09.021Z,79.33
2023-02-07T00:56:36.468Z,79.32
2023-02-07T00:59:03.382Z,79.14
2023-02-07T01:01:30.674Z,80.13
2023-02-07T01:03:57.851Z,79.91
2023-02-07T01:06:24.932Z,79.21
2023-02-07T01:08:57.941Z,79.58
2023-02-07T01:11:24.726Z,80.31
2023-02-07T01:13:51.678Z,78.91
2023-02-07T01:16:29.847Z,79.21
2023-02-07T01:18:57.633Z,79.61
2023-02-07T01:21:27.342Z,78.71
2023-02-07T01:23:57.689Z,79.74
2023-02-07T01:26:26.575Z,79.22
2023-02-07T01:28:55.559Z,79.51
2023-02-07T01:31:23.743Z,79.46
2023-02-07T01:33:56.061Z,78.77
2023-02-07T01:36:26.668Z,78.30
2023-02-07T01:38:54.616Z,77.75
2023-02-07T01:41:23.894Z,77.64
2023-02-07T01:43:54.771Z,78.48
2023-02-07T01:46:21.738Z,77.79
2023-02-07T01:48:49.130Z,78.19
2023-02-07T01:51:16.661Z,77.85
2023-02-07T01:53:43.639Z,77.92
2023-02-07T01:56:20.154Z,78.09
2023-02-07T01:58:56.298Z,78.40
2023-02-07T02:01:26.009Z,78.39
2023-02-07T02:03:56.120Z,78.73
2023-02-07T02:06:26.523Z,78.48
2023-02-07T02:08:58.597Z,78.82
2023-02-07T02:12:14.943Z,78.95
2023-02-07T02:15:23.318Z,78.41
2023-02-07T02:18:23.534Z,78.72
2023-02-07T02:21:52.018Z,77.94
2023-02-07T02:24:58.657Z,77.79
2023-02-07T02:27:44.194Z,78.03
2023-02-07T02:30:47.809Z,78.63
2023-02-07T02:33:58.064Z,78.00
2023-02-07T02:37:03.400Z,78.66
2023-02-07T02:39:42.361Z,78.91
2023-02-07T02:42:35.946Z,78.94
2023-02-07T02:45:16.794Z,78.55
2023-02-07T02:47:47.523Z,77.95
2023-02-07T02:50:23.075Z,78.30
2023-02-07T02:52:51.328Z,77.95
2023-02-07T02:55:38.462Z,78.59
2023-02-07T02:59:02.535Z,78.03
2023-02-07T03:01:43.615Z,78.07
2023-02-07T03:04:35.039Z,78.45
2023-02-07T03:07:23.437Z,78.58
2023-02-07T03:10:11.014Z,78.42
2023-02-07T03:12:53.884Z,78.72
2023-02-07T03:15:44.609Z,78.79
2023-02-07T03:18:48.869Z,78.80
2023-02-07T03:21:30.691Z,79.17
2023-02-07T03:24:01.834Z,79.48
2023-02-07T03:26:30.966Z,79.33
2023-02-07T03:28:59.769Z,79.38
2023-02-07T03:31:29.164Z,79.68
2023-02-07T03:34:04.615Z,79.82
2023-02-07T03:36:55.004Z,80.21
2023-02-07T03:39:21.904Z,80.93
2023-02-07T03:42:06.303Z,80.41
2023-02-07T03:44:36.259Z,80.34
2023-02-07T03:47:04.466Z,80.16
2023-02-07T03:49:31.348Z,80.21
2023-02-07T03:51:58.403Z,80.26
2023-02-07T03:54:25.200Z,80.62
2023-02-07T03:56:51.893Z,80.90
2023-02-07T03:59:18.622Z,80.63
2023-02-07T04:01:45.421Z,79.93
2023-02-07T04:04:12.652Z,80.04
2023-02-07T04:06:39.460Z,79.69
2023-02-07T04:09:06.297Z,79.05
2023-02-07T04:12:47.445Z,78.95
2023-02-07T04:15:14.918Z,78.44
2023-02-07T04:17:41.781Z,78.72
2023-02-07T04:20:10.503Z,78.73
2023-02-07T04:22:37.350Z,78.99
2023-02-07T04:25:05.451Z,78.64
2023-02-07T04:27:32.152Z,78.59
2023-02-07T04:29:58.827Z,79.08
2023-02-07T04:32:25.617Z,78.22
2023-02-07T04:34:52.370Z,77.72
2023-02-07T04:37:49.816Z,78.24
2023-02-07T04:40:19.514Z,78.05
2023-02-07T04:42:46.466Z,78.15
2023-02-07T04:45:13.152Z,77.85
2023-02-07T04:47:39.911Z,77.73
2023-02-07T04:50:06.989Z,77.72
2023-02-07T04:52:33.709Z,77.36
2023-02-07T04:55:00.396Z,77.23
2023-02-07T04:57:27.058Z,77.22
2023-02-07T04:59:54.502Z,77.07
2023-02-07T05:02:21.463Z,76.55
2023-02-07T05:04:48.221Z,76.74
2023-02-07T05:07:15.852Z,76.86
2023-02-07T05:09:42.806Z,76.75
2023-02-07T05:12:10.902Z,76.69
2023-02-07T05:14:37.867Z,76.34
2023-02-07T05:17:07.603Z,77.28
2023-02-07T05:19:35.116Z,77.00
2023-02-07T05:22:22.253Z,77.39
2023-02-07T05:24:49.539Z,78.08
2023-02-07T05:27:17.786Z,77.39
2023-02-07T05:29:51.096Z,78.06
2023-02-07T05:32:38.207Z,77.96
2023-02-07T05:35:07.738Z,78.46
2023-02-07T05:37:36.179Z,77.84
2023-02-07T05:40:14.941Z,78.23
2023-02-07T05:42:41.980Z,78.38
2023-02-07T05:45:09.095Z,77.66
2023-02-07T05:47:36.177Z,78.20
2023-02-07T05:50:03.999Z,78.16
2023-02-07T05:52:34.714Z,78.29
2023-02-07T05:55:02.407Z,78.16
2023-02-07T05:57:29.264Z,78.12
2023-02-07T05:59:56.012Z,77.44
2023-02-07T06:02:23.362Z,77.33
2023-02-07T06:04:50.286Z,76.85
2023-02-07T06:07:17.032Z,76.46
2023-02-07T06:09:43.867Z,76.47
2023-02-07T06:12:10.803Z,76.62
2023-02-07T06:14:37.667Z,76.33
2023-02-07T06:17:04.509Z,76.78
2023-02-07T06:19:31.336Z,76.42
2023-02-07T06:21:58.442Z,76.16
2023-02-07T06:24:25.326Z,76.11
2023-02-07T06:26:52.153Z,75.65
2023-02-07T06:29:20.053Z,75.92
2023-02-07T06:31:47.046Z,75.81
2023-02-07T06:34:13.917Z,76.03
2023-02-07T06:36:40.660Z,76.31
2023-02-07T06:39:07.707Z,76.14
2023-02-07T06:41:34.564Z,76.29
2023-02-07T06:44:01.462Z,75.90
2023-02-07T06:46:28.700Z,76.78
2023-02-07T06:48:55.934Z,76.61
2023-02-07T06:51:23.465Z,75.76
2023-02-07T06:53:50.428Z,75.68
2023-02-07T06:56:18.697Z,75.89
2023-02-07T06:58:46.093Z,75.95
2023-02-07T07:01:12.910Z,75.40
2023-02-07T07:03:39.857Z,75.34
2023-02-07T07:06:06.753Z,76.14
2023-02-07T07:08:33.520Z,75.65
2023-02-07T07:11:00.569Z,76.14
2023-02-07T07:13:27.500Z,76.76
2023-02-07T07:15:54.374Z,76.48
2023-02-07T07:18:21.264Z,76.79
2023-02-07T07:20:54.211Z,76.56
2023-02-07T07:23:22.072Z,76.58
2023-02-07T07:25:48.873Z,76.67
2023-02-07T07:28:15.632Z,77.03
2023-02-07T07:30:43.478Z,76.71
2023-02-07T07:33:10.591Z,77.10
2023-02-07T07:35:37.797Z,76.64
2023-02-07T07:38:04.864Z,77.08
2023-02-07T07:40:31.865Z,76.92
2023-02-07T07:42:59.024Z,76.54
2023-02-07T07:45:38.628Z,77.16
2023-02-07T07:48:05.671Z,76.65
2023-02-07T07:50:32.501Z,77.04
2023-02-07T07:52:59.322Z,76.78
2023-02-07T07:55:26.248Z,76.21
2023-02-07T07:57:53.765Z,76.64
2023-02-07T08:00:20.955Z,76.52
2023-02-07T08:02:47.637Z,75.75
2023-02-07T08:05:14.284Z,75.82
2023-02-07T08:07:41.286Z,75.17
2023-02-07T08:10:08.317Z,75.03
2023-02-07T08:12:35.322Z,75.34
2023-02-07T08:15:02.214Z,74.97
2023-02-07T08:17:29.054Z,74.83
2023-02-07T08:19:55.783Z,74.57
2023-02-07T08:22:22.576Z,74.77
2023-02-07T08:24:49.299Z,75.02
2023-02-07T08:27:16.576Z,75.09
2023-02-07T08:29:43.453Z,75.24
2023-02-07T08:32:10.350Z,74.91
2023-02-07T08:34:37.735Z,74.62
2023-02-07T08:37:07.577Z,73.91
2023-02-07T08:39:35.840Z,73.69
2023-02-07T08:42:05.479Z,74.01
2023-02-07T08:44:32.515Z,74.93
2023-02-07T08:46:59.358Z,73.75
2023-02-07T08:49:26.850Z,73.49
2023-02-07T08:51:53.616Z,72.46
2023-02-07T08:54:20.582Z,72.95
2023-02-07T08:56:48.363Z,72.58
2023-02-07T08:59:15.178Z,72.83
2023-02-07T09:01:42.291Z,73.05
2023-02-07T09:04:11.369Z,72.05
2023-02-07T09:06:38.794Z,71.32
2023-02-07T09:09:06.777Z,71.30
2023-02-07T09:11:33.798Z,71.67
2023-02-07T09:14:01.816Z,71.86
2023-02-07T09:16:29.089Z,72.03
2023-02-07T09:18:56.775Z,71.31
2023-02-07T09:21:23.865Z,71.70
2023-02-07T09:23:50.678Z,71.80
2023-02-07T09:26:21.612Z,71.69
2023-02-07T09:28:49.022Z,71.02
2023-02-07T09:31:16.486Z,70.87
2023-02-07T09:33:43.751Z,70.63
2023-02-07T09:36:24.154Z,70.08
2023-02-07T09:38:52.377Z,70.52
2023-02-07T09:41:53.581Z,69.62
2023-02-07T09:44:46.684Z,69.68
2023-02-07T09:47:43.160Z,69.38
2023-02-07T09:50:15.012Z,69.08
2023-02-07T09:52:55.271Z,69.33
2023-02-07T09:55:32.618Z,68.91
2023-02-07T09:58:30.671Z,68.55
2023-02-07T10:01:09.336Z,69.00
2023-02-07T10:03:45.697Z,69.49
2023-02-07T10:06:20.663Z,68.47
2023-02-07T10:08:55.177Z,68.99
2023-02-07T10:11:42.689Z,68.65
2023-02-07T10:14:51.697Z,67.91
2023-02-07T10:17:48.279Z,68.64
2023-02-07T10:20:27.159Z,67.66
2023-02-07T10:23:34.143Z,68.21
2023-02-07T10:26:12.490Z,68.43
2023-02-07T10:29:26.068Z,67.70
2023-02-07T10:31:56.428Z,66.58
2023-02-07T10:34:28.768Z,66.59
2023-02-07T10:36:58.822Z,65.80
2023-02-07T10:39:45.570Z,66.07
2023-02-07T10:42:17.126Z,65.18
2023-02-07T10:44:44.411Z,64.88
2023-02-07T10:47:17.750Z,64.81
2023-02-07T10:49:51.818Z,65.11
2023-02-07T10:52:44.749Z,64.92
2023-02-07T10:55:14.295Z,65.08
2023-02-07T10:57:45.920Z,64.37
2023-02-07T11:00:31.594Z,64.71
2023-02-07T11:03:06.990Z,64.12
2023-02-07T11:05:38.081Z,63.48
2023-02-07T11:08:14.451Z,62.66
2023-02-07T11:10:44.340Z,63.23
2023-02-07T11:13:24.690Z,62.38
2023-02-07T11:16:04.605Z,63.51
2023-02-07T11:18:31.446Z,61.80
2023-02-07T11:20:58.257Z,61.13
2023-02-07T11:23:25.629Z,60.86
2023-02-07T11:25:56.018Z,61.12
2023-02-07T11:28:27.731Z,59.89
2023-02-07T11:31:07.333Z,59.97
2023-02-07T11:33:36.532Z,59.68
2023-02-07T11:36:23.799Z,59.73
2023-02-07T11:38:57.246Z,59.77
2023-02-07T11:41:31.004Z,59.05
2023-02-07T11:44:16.985Z,59.17
2023-02-07T11:46:48.546Z,59.52
2023-02-07T11:49:30.970Z,59.85
2023-02-07T11:52:00.606Z,58.69
2023-02-07T11:54:32.403Z,58.11
2023-02-07T11:57:06.326Z,57.49
2023-02-07T11:59:34.152Z,56.91
2023-02-07T12:02:17.725Z,56.53
2023-02-07T12:04:45.065Z,56.21
2023-02-07T12:07:36.277Z,56.27
2023-02-07T12:10:16.372Z,56.76
2023-02-07T12:13:01.457Z,57.24
2023-02-07T12:15:52.652Z,57.06
2023-02-07T12:18:28.993Z,56.14
2023-02-07T12:21:04.539Z,56.40
2023-02-07T12:23:43.266Z,55.96
2023-02-07T12:26:43.285Z,55.80
2023-02-07T12:29:46.020Z,55.00
2023-02-07T12:32:44.008Z,55.76
2023-02-07T12:35:36.488Z,55.08
2023-02-07T12:38:42.523Z,53.23
2023-02-07T12:41:15.463Z,53.98
2023-02-07T12:43:56.796Z,52.86
2023-02-07T12:46:41.963Z,53.81
2023-02-07T12:49:37.549Z,53.01
2023-02-07T12:52:32.320Z,52.08
2023-02-07T12:55:22.638Z,52.48
2023-02-07T12:58:23.134Z,51.86
2023-02-07T13:01:24.895Z,52.11
2023-02-07T13:04:06.121Z,50.68
2023-02-07T13:06:45.917Z,50.98
2023-02-07T13:09:30.974Z,51.84
2023-02-07T13:12:21.739Z,52.68
2023-02-07T13:14:58.177Z,53.24
2023-02-07T13:18:08.438Z,51.52
2023-02-07T13:21:02.322Z,48.84
2023-02-07T13:23:33.522Z,49.00
2023-02-07T13:26:11.463Z,49.70
2023-02-07T13:28:57.161Z,48.96
2023-02-07T13:31:49.043Z,48.43
2023-02-07T13:34:21.186Z,49.94
2023-02-07T13:36:50.224Z,49.08
2023-02-07T13:39:42.604Z,48.94
2023-02-07T13:42:43.502Z,45.50
2023-02-07T13:45:56.397Z,47.03
2023-02-07T13:48:35.669Z,48.39
2023-02-07T13:51:05.089Z,46.89
2023-02-07T13:57:58.324Z,48.69
2023-02-07T14:00:31.109Z,47.82
2023-02-07T14:03:04.447Z,48.67
2023-02-07T14:05:40.190Z,48.13
2023-02-07T14:08:24.824Z,46.96
2023-02-07T14:10:58.936Z,48.55
2023-02-07T14:13:37.925Z,48.08
2023-02-07T14:16:11.704Z,47.75
2023-02-07T14:18:48.775Z,47.48
2023-02-07T14:21:31.588Z,46.91
2023-02-07T14:24:01.440Z,46.32
2023-02-07T14:26:40.631Z,45.10
2023-02-07T14:29:26.937Z,46.07
2023-02-07T14:32:25.481Z,47.04
2023-02-07T14:35:19.503Z,48.56
2023-02-07T14:37:53.985Z,46.04
2023-02-07T14:40:47.923Z,46.15
2023-02-07T14:43:15.144Z,46.87
2023-02-07T14:46:18.076Z,46.12
2023-02-07T14:48:59.570Z,46.80
2023-02-07T14:51:29.351Z,46.53
2023-02-07T14:54:08.209Z,47.09
2023-02-07T14:56:46.749Z,47.41
2023-02-07T14:59:34.498Z,46.28
2023-02-07T15:02:41.040Z,45.54
2023-02-07T15:05:26.155Z,46.86
2023-02-07T15:08:11.236Z,45.74
2023-02-07T15:10:45.829Z,47.28
2023-02-07T15:13:42.507Z,44.90
2023-02-07T15:16:14.667Z,46.50
2023-02-07T15:18:58.602Z,44.97
2023-02-07T15:21:46.256Z,45.81
2023-02-07T15:24:28.510Z,47.99
2023-02-07T15:27:01.276Z,46.96
2023-02-07T15:29:37.807Z,46.61
2023-02-07T15:32:23.580Z,45.95
2023-02-07T15:34:50.309Z,46.13
2023-02-07T15:37:23.050Z,47.50
2023-02-07T15:39:55.219Z,45.64
2023-02-07T15:42:22.723Z,46.51
2023-02-07T15:44:53.647Z,46.45
2023-02-07T15:47:39.322Z,48.17
2023-02-07T15:50:23.896Z,48.11
2023-02-07T15:52:55.343Z,50.18
2023-02-07T15:55:34.554Z,50.42
2023-02-07T15:58:05.820Z,50.70
2023-02-07T16:00:41.066Z,52.87
2023-02-07T16:03:18.682Z,50.46
2023-02-07T16:05:45.762Z,51.23
2023-02-07T16:08:36.186Z,52.87
2023-02-07T16:11:27.883Z,52.90
2023-02-07T16:14:25.579Z,51.99
2023-02-07T16:16:55.873Z,52.35
2023-02-07T16:19:28.472Z,54.73
2023-02-07T16:22:07.036Z,56.01
2023-02-07T16:24:38.261Z,55.69
2023-02-07T16:27:06.488Z,56.21
2023-02-07T16:29:36.286Z,57.28
2023-02-07T16:32:04.489Z,56.98
2023-02-07T16:34:31.317Z,57.05
2023-02-07T16:36:58.036Z,57.86
2023-02-07T16:39:24.790Z,58.56
2023-02-07T16:41:56.947Z,58.95
2023-02-07T16:44:26.114Z,59.43
2023-02-07T16:46:53.293Z,59.00
2023-02-07T16:49:23.679Z,59.01
2023-02-07T16:51:50.596Z,59.16
2023-02-07T16:54:17.403Z,58.95
2023-02-07T16:56:46.393Z,60.08
2023-02-07T16:59:23.318Z,61.41
2023-02-07T17:01:52.917Z,60.87
2023-02-07T17:04:20.078Z,61.86
2023-02-07T17:06:47.816Z,60.41
2023-02-07T17:09:25.118Z,59.34
2023-02-07T17:11:53.753Z,62.46
2023-02-07T17:14:21.002Z,61.83
2023-02-07T17:16:48.189Z,61.38
2023-02-07T17:19:24.066Z,62.00
2023-02-07T17:21:52.382Z,62.21
2023-02-07T17:24:19.702Z,62.20
2023-02-07T17:26:50.503Z,61.82
2023-02-07T17:29:19.154Z,62.79
2023-02-07T17:31:46.916Z,62.65
2023-02-07T17:34:13.758Z,61.84
2023-02-07T17:36:46.275Z,61.92
2023-02-07T17:39:15.440Z,62.52
2023-02-07T17:41:42.412Z,62.63
2023-02-07T17:44:09.318Z,63.67
2023-02-07T17:46:36.685Z,62.98
2023-02-07T17:49:04.020Z,63.71
2023-02-07T17:51:30.835Z,63.65
2023-02-07T17:53:57.758Z,64.17
2023-02-07T17:56:30.889Z,64.40
2023-02-07T17:59:02.307Z,65.52
2023-02-07T18:01:30.699Z,65.08
2023-02-07T18:03:58.536Z,65.05
2023-02-07T18:06:28.910Z,65.37
2023-02-07T18:08:58.748Z,65.59
2023-02-07T18:11:34.941Z,65.48
2023-02-07T18:14:02.887Z,64.30
2023-02-07T18:16:29.650Z,65.48
2023-02-07T18:18:57.961Z,65.56
2023-02-07T18:21:25.895Z,65.51
2023-02-07T18:23:53.455Z,66.65
2023-02-07T18:26:21.566Z,66.00
2023-02-07T18:28:49.640Z,67.16
2023-02-07T18:31:24.104Z,66.67
2023-02-07T18:33:53.008Z,66.95
2023-02-07T18:36:22.308Z,67.01
2023-02-07T18:38:49.542Z,65.66
2023-02-07T18:41:21.910Z,66.10
2023-02-07T18:43:50.447Z,65.78
2023-02-07T18:46:20.453Z,65.36
2023-02-07T18:48:51.138Z,63.60
2023-02-07T18:51:19.495Z,63.64
2023-02-07T18:53:50.450Z,64.08
2023-02-07T18:56:22.168Z,64.51
2023-02-07T18:58:52.986Z,64.52
2023-02-07T19:01:21.003Z,65.58
2023-02-07T19:03:58.205Z,64.33
2023-02-07T19:06:29.191Z,64.08
2023-02-07T19:08:56.692Z,65.27
2023-02-07T19:11:24.039Z,66.44
2023-02-07T19:13:50.794Z,66.13
2023-02-07T19:16:22.119Z,66.08
2023-02-07T19:18:50.841Z,66.01
2023-02-07T19:21:27.411Z,66.96
2023-02-07T19:23:57.058Z,65.83
2023-02-07T19:26:25.254Z,66.13
2023-02-07T19:28:53.043Z,65.00
2023-02-07T19:31:21.018Z,63.82
2023-02-07T19:33:49.481Z,63.44
2023-02-07T19:36:18.528Z,64.38
2023-02-07T19:38:48.452Z,63.47
2023-02-07T19:41:17.194Z,63.36
2023-02-07T19:43:45.739Z,63.26
2023-02-07T19:46:12.602Z,64.35
2023-02-07T19:48:39.346Z,64.71
2023-02-07T19:51:11.785Z,65.13
2023-02-07T19:53:38.635Z,66.07
2023-02-07T19:56:11.448Z,66.46
2023-02-07T19:58:45.648Z,67.83
2023-02-07T20:01:13.263Z,68.48
2023-02-07T20:03:41.235Z,68.81
2023-02-07T20:06:13.798Z,68.25
2023-02-07T20:08:41.542Z,69.38
2023-02-07T20:11:13.242Z,69.43
2023-02-07T20:13:45.845Z,68.96
2023-02-07T20:16:17.023Z,69.51
2023-02-07T20:18:44.806Z,69.90
2023-02-07T20:21:16.369Z,69.93
2023-02-07T20:23:46.644Z,70.43
2023-02-07T20:26:21.588Z,70.69
2023-02-07T20:28:50.047Z,70.59
2023-02-07T20:31:21.420Z,70.46
2023-02-07T20:33:48.497Z,70.20
2023-02-07T20:36:17.894Z,70.63
2023-02-07T20:38:46.093Z,71.54
2023-02-07T20:41:29.378Z,71.80
2023-02-07T20:44:11.132Z,71.90
2023-02-07T20:46:38.846Z,71.99
2023-02-07T20:49:19.723Z,71.15
2023-02-07T20:51:49.295Z,71.38
2023-02-07T20:54:18.841Z,71.74
2023-02-07T20:56:45.752Z,71.29
2023-02-07T20:59:22.290Z,71.36
2023-02-07T21:01:49.440Z,71.07
2023-02-07T21:04:17.350Z,71.64
2023-02-07T21:06:44.956Z,70.78
2023-02-07T21:09:13.670Z,71.49
2023-02-07T21:11:45.782Z,70.99
2023-02-07T21:14:22.839Z,70.85
2023-02-07T21:16:54.623Z,70.64
2023-02-07T21:19:22.632Z,70.72
2023-02-07T21:21:50.939Z,71.16
2023-02-07T21:24:19.096Z,70.45
2023-02-07T21:26:49.284Z,70.72
2023-02-07T21:29:16.221Z,70.26
2023-02-07T21:31:43.514Z,70.15
2023-02-07T21:34:10.642Z,70.57
2023-02-07T21:36:40.414Z,70.73
2023-02-07T21:39:13.889Z,70.54
2023-02-07T21:41:46.903Z,71.29
2023-02-07T21:44:15.113Z,71.22
2023-02-07T21:46:46.423Z,70.72
2023-02-07T21:49:16.854Z,70.98
2023-02-07T21:51:47.028Z,70.13
2023-02-07T21:54:15.390Z,70.64
2023-02-07T21:56:44.216Z,70.33
2023-02-07T21:59:16.756Z,69.99
2023-02-07T22:01:44.832Z,69.82
2023-02-07T22:04:14.725Z,69.68
2023-02-07T22:06:44.309Z,69.39
2023-02-07T22:09:14.494Z,68.45
2023-02-07T22:11:41.750Z,68.53
2023-02-07T22:14:11.598Z,67.94
2023-02-07T22:16:38.828Z,68.01
2023-02-07T22:19:10.877Z,68.18
2023-02-07T22:21:38.241Z,66.96
2023-02-07T22:24:06.853Z,67.43
2023-02-07T22:26:35.146Z,67.21
2023-02-07T22:29:04.677Z,67.11
2023-02-07T22:31:35.854Z,66.75
2023-02-07T22:34:11.516Z,66.71
2023-02-07T22:36:42.971Z,66.17
2023-02-07T22:39:13.831Z,65.05
2023-02-07T22:41:40.864Z,65.06
2023-02-07T22:44:07.985Z,64.59
2023-02-07T22:46:34.924Z,64.60
2023-02-07T22:49:01.796Z,64.41
2023-02-07T22:51:32.720Z,64.57
2023-02-07T22:54:05.707Z,65.41
2023-02-07T22:56:34.609Z,65.89
2023-02-07T22:59:01.596Z,64.72
2023-02-07T23:01:32.712Z,64.50
2023-02-07T23:04:02.213Z,65.19
2023-02-07T23:06:29.554Z,65.25
2023-02-07T23:08:56.626Z,65.69
2023-02-07T23:11:24.675Z,65.70
2023-02-07T23:13:53.171Z,65.99
2023-02-07T23:16:26.511Z,65.98
2023-02-07T23:18:58.556Z,65.97
2023-02-07T23:21:26.891Z,65.71
2023-02-07T23:23:54.311Z,65.99
2023-02-07T23:26:23.872Z,66.33
2023-02-07T23:28:51.954Z,66.27
2023-02-07T23:31:21.746Z,65.83
2023-02-07T23:33:49.294Z,66.86
2023-02-07T23:36:17.816Z,65.99
2023-02-07T23:38:46.903Z,65.47
2023-02-07T23:41:14.698Z,65.25
2023-02-07T23:43:41.955Z,65.63
2023-02-07T23:46:10.802Z,65.83
2023-02-07T23:48:38.815Z,66.05
2023-02-07T23:51:06.895Z,65.82
2023-02-07T23:53:34.913Z,66.69
2023-02-07T23:56:04.047Z,67.04
2023-02-07T23:58:31.938Z,66.86
